Time;durP1;ratioP1;P1;durP2;ratioP2;P2;SDS_P1;SDS_P2;PMS_P1;PMS_P2;Temp;Humidity;BMP_temperature;BMP_pressure;BME280_temperature;BME280_humidity;BME280_pressure;Samples;Min_cycle;Max_cycle;Signal;HPM_P1;HPM_P2
2022/03/28 00:01:54;;;;;;;0.25;0.20;;;21.90;42.70;;;;;;5062496;28;20097;-39
2022/03/28 00:04:21;;;;;;;0.85;0.38;;;22.00;42.80;;;;;;5063023;28;20559;-39
2022/03/28 00:06:47;;;;;;;0.55;0.30;;;22.00;42.60;;;;;;5062681;28;20064;-39
2022/03/28 00:09:13;;;;;;;0.30;0.28;;;21.90;42.30;;;;;;5061660;28;20059;-39
2022/03/28 00:11:39;;;;;;;0.22;0.20;;;21.90;42.40;;;;;;5062617;28;20063;-39
2022/03/28 00:14:06;;;;;;;0.75;0.30;;;22.00;42.60;;;;;;5062557;28;20063;-39
2022/03/28 00:16:32;;;;;;;0.63;0.30;;;22.00;42.70;;;;;;5062604;28;20072;-39
2022/03/28 00:19:00;;;;;;;0.80;0.30;;;21.90;42.70;;;;;;5062402;28;20037;-39
2022/03/28 00:21:26;;;;;;;0.50;0.30;;;22.00;42.50;;;;;;5062156;28;20036;-39
2022/03/28 00:23:53;;;;;;;0.63;0.30;;;22.00;42.40;;;;;;5062574;28;20049;-40
2022/03/28 00:26:19;;;;;;;0.20;0.20;;;22.00;42.50;;;;;;5062787;28;20429;-39
2022/03/28 00:28:45;;;;;;;0.43;0.22;;;22.00;42.50;;;;;;5062330;28;20047;-39
2022/03/28 00:31:11;;;;;;;0.35;0.25;;;21.90;42.30;;;;;;5062642;28;20037;-39
2022/03/28 00:33:38;;;;;;;0.68;0.30;;;22.00;42.40;;;;;;5062022;28;20068;-39
2022/03/28 00:36:04;;;;;;;0.68;0.30;;;21.90;42.50;;;;;;5062456;28;20091;-39
2022/03/28 00:38:31;;;;;;;0.22;0.20;;;22.00;42.60;;;;;;5059257;28;20052;-39
2022/03/28 00:40:57;;;;;;;0.75;0.30;;;22.00;42.70;;;;;;5057395;28;20097;-39
2022/03/28 00:43:23;;;;;;;0.67;0.30;;;22.00;42.40;;;;;;5062342;28;20572;-39
2022/03/28 00:45:49;;;;;;;0.65;0.25;;;22.00;42.30;;;;;;5062283;28;20036;-39
2022/03/28 00:48:15;;;;;;;0.30;0.20;;;22.00;42.50;;;;;;5062068;28;20021;-39
2022/03/28 00:50:42;;;;;;;0.30;0.30;;;21.90;42.60;;;;;;5061855;28;20037;-39
2022/03/28 00:53:11;;;;;;;0.52;0.30;;;21.90;42.20;;;;;;5062301;28;20067;-39
2022/03/28 00:55:37;;;;;;;0.30;0.30;;;21.90;41.70;;;;;;5042272;28;20071;-39
2022/03/28 00:58:03;;;;;;;0.70;0.35;;;22.00;42.20;;;;;;5042393;28;20060;-39
2022/03/28 01:00:29;;;;;;;0.25;0.20;;;21.90;42.50;;;;;;5043505;28;20036;-39
2022/03/28 01:02:57;;;;;;;0.40;0.30;;;22.00;42.70;;;;;;5046550;28;20112;-39
2022/03/28 01:05:26;;;;;;;0.43;0.30;;;22.00;42.40;;;;;;5046275;28;20034;-39
2022/03/28 01:07:52;;;;;;;0.38;0.25;;;22.00;42.40;;;;;;5046071;28;20037;-39
2022/03/28 01:10:19;;;;;;;0.40;0.20;;;21.90;42.50;;;;;;5057440;28;20037;-39
2022/03/28 01:12:45;;;;;;;0.43;0.30;;;21.90;42.40;;;;;;5066100;28;20436;-39
2022/03/28 01:15:12;;;;;;;0.32;0.20;;;21.90;42.20;;;;;;5066063;28;20041;-39
2022/03/28 01:20:30;;;;;;;0.57;0.40;;;21.90;42.20;;;;;;5065601;28;20139;-39
2022/03/28 01:22:56;;;;;;;0.90;0.32;;;22.00;42.50;;;;;;5065857;28;20085;-39
2022/03/28 01:25:24;;;;;;;0.20;0.20;;;22.00;42.40;;;;;;5048257;28;20779;-39
2022/03/28 01:27:52;;;;;;;0.20;0.20;;;21.90;42.30;;;;;;5045929;28;20045;-39
2022/03/28 01:30:22;;;;;;;0.40;0.30;;;21.90;42.40;;;;;;5045362;28;20040;-39
2022/03/28 01:32:49;;;;;;;0.45;0.30;;;21.90;42.70;;;;;;5045884;28;20295;-40
2022/03/28 01:35:37;;;;;;;1.30;0.30;;;21.90;42.30;;;;;;5046619;28;20034;-39
2022/03/28 01:38:04;;;;;;;0.32;0.20;;;21.90;42.00;;;;;;5045488;28;20068;-39
2022/03/28 01:40:31;;;;;;;0.57;0.30;;;21.90;42.20;;;;;;5055583;28;20343;-39
2022/03/28 01:42:57;;;;;;;0.63;0.30;;;21.90;42.60;;;;;;5065415;28;20032;-39
2022/03/28 01:45:24;;;;;;;0.27;0.20;;;21.90;42.40;;;;;;5065834;28;20029;-39
2022/03/28 01:47:50;;;;;;;0.50;0.30;;;21.90;42.50;;;;;;5065585;28;20039;-39
2022/03/28 01:50:16;;;;;;;0.57;0.40;;;21.90;42.40;;;;;;5065105;28;20024;-39
2022/03/28 01:52:42;;;;;;;1.42;0.32;;;21.90;42.40;;;;;;5065244;28;20025;-39
2022/03/28 01:55:09;;;;;;;0.32;0.25;;;21.90;42.20;;;;;;5064824;28;20087;-39
2022/03/28 01:57:39;;;;;;;0.80;0.27;;;21.90;42.10;;;;;;5066585;28;20036;-39
2022/03/28 02:00:16;;;;;;;0.50;0.30;;;21.90;42.10;;;;;;5065368;28;20033;-39
2022/03/28 02:02:43;;;;;;;0.60;0.40;;;21.90;42.60;;;;;;5062671;28;20025;-39
2022/03/28 02:05:11;;;;;;;1.55;0.30;;;21.90;42.40;;;;;;5065266;28;20033;-39
2022/03/28 02:07:41;;;;;;;2.67;0.40;;;21.90;43.10;;;;;;5050710;28;20033;-39
2022/03/28 02:10:11;;;;;;;0.45;0.30;;;21.90;42.50;;;;;;5057365;28;20071;-39
2022/03/28 02:12:38;;;;;;;0.43;0.30;;;21.90;42.50;;;;;;5045545;28;20596;-39
2022/03/28 02:15:06;;;;;;;1.02;0.40;;;21.90;42.30;;;;;;5043558;28;20124;-39
2022/03/28 02:17:33;;;;;;;0.50;0.32;;;21.90;42.00;;;;;;5051136;28;20033;-39
2022/03/28 02:19:59;;;;;;;0.38;0.28;;;21.90;42.20;;;;;;5064315;28;20032;-39
2022/03/28 02:22:25;;;;;;;1.52;0.32;;;21.90;42.70;;;;;;5045413;28;20029;-39
2022/03/28 02:24:52;;;;;;;1.33;0.40;;;21.90;42.50;;;;;;5064416;28;20040;-39
2022/03/28 02:27:18;;;;;;;0.70;0.30;;;21.90;42.70;;;;;;5059093;28;20033;-39
2022/03/28 02:29:44;;;;;;;0.43;0.38;;;21.90;42.60;;;;;;5044193;28;20033;-39
2022/03/28 02:32:12;;;;;;;0.47;0.30;;;21.90;42.50;;;;;;5050479;28;20055;-39
2022/03/28 02:34:38;;;;;;;0.60;0.35;;;21.90;42.40;;;;;;5064278;28;20072;-40
2022/03/28 02:37:04;;;;;;;0.65;0.30;;;21.80;42.20;;;;;;5064241;28;20124;-40
2022/03/28 02:39:31;;;;;;;0.82;0.30;;;21.90;42.30;;;;;;5062130;28;20025;-39
2022/03/28 02:41:57;;;;;;;1.10;0.60;;;21.90;42.80;;;;;;5064116;28;20052;-39
2022/03/28 02:44:23;;;;;;;0.30;0.20;;;21.90;42.80;;;;;;5063594;28;20021;-39
2022/03/28 02:46:49;;;;;;;1.17;0.40;;;21.90;42.80;;;;;;5055543;28;20026;-39
2022/03/28 02:49:16;;;;;;;0.52;0.30;;;21.90;42.80;;;;;;5056103;28;20654;-39
2022/03/28 02:51:42;;;;;;;0.50;0.30;;;21.80;42.70;;;;;;5064134;28;20033;-39
2022/03/28 02:54:08;;;;;;;1.08;0.30;;;21.80;42.70;;;;;;5057027;28;20032;-39
2022/03/28 02:56:34;;;;;;;0.50;0.38;;;21.80;42.60;;;;;;5071168;28;20036;-39
2022/03/28 02:59:01;;;;;;;0.40;0.30;;;21.80;42.40;;;;;;5044800;28;20026;-40
2022/03/28 03:01:27;;;;;;;0.47;0.38;;;21.80;42.50;;;;;;5047308;28;20033;-39
2022/03/28 03:03:53;;;;;;;0.38;0.30;;;21.80;42.90;;;;;;5063632;28;20762;-40
2022/03/28 03:06:19;;;;;;;0.57;0.30;;;21.80;42.80;;;;;;5063968;28;20100;-39
2022/03/28 03:08:45;;;;;;;0.47;0.40;;;21.80;42.90;;;;;;5071881;28;20037;-39
2022/03/28 03:11:12;;;;;;;0.47;0.30;;;21.80;42.90;;;;;;5062860;28;20045;-38
2022/03/28 03:13:38;;;;;;;1.02;0.40;;;21.80;42.80;;;;;;5060148;28;20659;-39
2022/03/28 03:16:04;;;;;;;1.05;0.40;;;21.80;42.70;;;;;;5061931;28;20044;-39
2022/03/28 03:18:30;;;;;;;0.27;0.27;;;21.80;42.50;;;;;;5062814;28;20704;-39
2022/03/28 03:20:58;;;;;;;0.60;0.30;;;21.80;42.70;;;;;;5063480;28;20278;-40
2022/03/28 03:23:24;;;;;;;0.63;0.50;;;21.80;42.90;;;;;;5064548;28;20060;-39
2022/03/28 03:25:51;;;;;;;0.65;0.47;;;21.80;43.00;;;;;;5063410;28;20087;-39
2022/03/28 03:28:17;;;;;;;0.68;0.50;;;21.80;43.10;;;;;;5063372;28;20021;-39
2022/03/28 03:30:43;;;;;;;0.60;0.50;;;21.80;43.00;;;;;;5063408;28;20782;-39
2022/03/28 03:33:09;;;;;;;1.23;0.50;;;21.70;42.80;;;;;;5063110;28;20029;-39
2022/03/28 03:35:35;;;;;;;1.50;0.60;;;21.70;42.80;;;;;;5058554;28;20482;-39
2022/03/28 03:38:02;;;;;;;0.50;0.30;;;21.70;42.70;;;;;;5052967;28;20084;-39
2022/03/28 03:40:29;;;;;;;0.70;0.47;;;21.70;42.70;;;;;;5054295;28;20048;-40
2022/03/28 03:42:55;;;;;;;0.60;0.30;;;21.70;42.90;;;;;;5062942;28;20788;-40
2022/03/28 03:45:21;;;;;;;0.63;0.40;;;21.70;43.10;;;;;;5057195;28;20025;-39
2022/03/28 03:47:47;;;;;;;0.80;0.38;;;21.70;43.10;;;;;;5062924;28;20029;-39
2022/03/28 03:50:13;;;;;;;0.60;0.40;;;21.70;43.20;;;;;;5054212;28;20048;-39
2022/03/28 03:52:39;;;;;;;0.32;0.30;;;21.70;43.10;;;;;;5057313;28;20034;-39
2022/03/28 03:55:06;;;;;;;0.60;0.30;;;21.70;42.90;;;;;;5072801;28;20051;-39
2022/03/28 03:57:33;;;;;;;0.38;0.30;;;21.70;42.80;;;;;;5062880;28;20025;-39
2022/03/28 03:59:59;;;;;;;0.30;0.30;;;21.70;43.00;;;;;;5063115;28;20033;-39
2022/03/28 04:02:25;;;;;;;1.08;0.40;;;21.70;43.20;;;;;;5062446;28;20093;-39
2022/03/28 04:04:51;;;;;;;1.00;0.40;;;21.70;43.30;;;;;;5062895;28;20394;-39
2022/03/28 04:07:17;;;;;;;0.85;0.40;;;21.70;43.40;;;;;;5063493;28;20084;-38
2022/03/28 04:09:44;;;;;;;1.30;0.40;;;21.70;43.90;;;;;;5061329;28;20045;-39
2022/03/28 04:12:11;;;;;;;0.98;0.40;;;21.70;43.30;;;;;;5062352;28;20017;-39
2022/03/28 04:14:37;;;;;;;0.38;0.30;;;21.70;43.10;;;;;;5062464;28;20044;-39
2022/03/28 04:17:04;;;;;;;0.50;0.38;;;21.70;43.10;;;;;;5062799;28;20460;-40
2022/03/28 04:19:30;;;;;;;1.73;0.60;;;21.60;43.10;;;;;;5048625;28;20036;-40
2022/03/28 04:21:57;;;;;;;0.40;0.40;;;21.60;43.20;;;;;;5060827;28;20029;-39
2022/03/28 04:24:23;;;;;;;0.65;0.40;;;21.60;43.40;;;;;;5062467;28;20031;-39
2022/03/28 04:26:49;;;;;;;0.50;0.50;;;21.70;43.40;;;;;;5061966;28;20069;-39
2022/03/28 04:29:15;;;;;;;0.45;0.40;;;21.60;43.60;;;;;;5063012;28;20036;-39
2022/03/28 04:31:41;;;;;;;0.50;0.40;;;21.60;43.50;;;;;;5062405;28;20032;-39
2022/03/28 04:34:08;;;;;;;0.73;0.45;;;21.70;43.40;;;;;;5061427;28;20028;-39
2022/03/28 04:36:34;;;;;;;0.63;0.40;;;21.60;43.20;;;;;;5047259;28;20041;-39
2022/03/28 04:39:00;;;;;;;0.68;0.40;;;21.70;43.40;;;;;;5057750;28;20021;-39
2022/03/28 04:41:26;;;;;;;0.77;0.30;;;21.60;43.50;;;;;;5056038;28;20041;-39
2022/03/28 04:43:52;;;;;;;0.80;0.50;;;21.70;43.50;;;;;;5061899;28;20025;-39
2022/03/28 04:46:19;;;;;;;0.80;0.38;;;21.70;43.70;;;;;;5050792;28;20063;-39
2022/03/28 04:48:47;;;;;;;0.60;0.50;;;21.60;43.50;;;;;;5054955;28;20021;-39
2022/03/28 04:51:13;;;;;;;0.63;0.40;;;21.60;43.50;;;;;;5062203;28;20061;-39
2022/03/28 04:53:39;;;;;;;0.90;0.40;;;21.60;43.40;;;;;;5060607;28;20036;-39
2022/03/28 04:56:05;;;;;;;0.73;0.40;;;21.60;43.50;;;;;;5050670;28;20046;-39
2022/03/28 04:58:31;;;;;;;0.47;0.30;;;21.60;43.60;;;;;;5062341;28;20028;-39
2022/03/28 05:00:57;;;;;;;1.02;0.40;;;21.60;43.70;;;;;;5054564;28;20036;-39
2022/03/28 05:03:24;;;;;;;0.60;0.40;;;21.60;43.80;;;;;;5042158;28;20028;-41
2022/03/28 05:05:50;;;;;;;0.70;0.40;;;21.60;43.70;;;;;;5046532;28;20104;-39
2022/03/28 05:08:16;;;;;;;0.75;0.50;;;21.60;43.60;;;;;;5062354;28;20179;-39
2022/03/28 05:10:43;;;;;;;0.50;0.38;;;21.60;43.50;;;;;;5061294;28;20055;-39
2022/03/28 05:13:09;;;;;;;0.50;0.30;;;21.60;43.60;;;;;;5061412;28;20067;-39
2022/03/28 05:15:35;;;;;;;0.80;0.40;;;21.60;43.80;;;;;;5064072;28;20079;-39
2022/03/28 05:18:01;;;;;;;0.75;0.40;;;21.60;43.80;;;;;;5061460;28;20025;-39
2022/03/28 05:20:27;;;;;;;0.57;0.40;;;21.60;43.90;;;;;;5062490;28;20056;-39
2022/03/28 05:22:54;;;;;;;0.52;0.30;;;21.60;43.80;;;;;;5061526;28;20029;-39
2022/03/28 05:25:20;;;;;;;0.30;0.22;;;21.60;43.60;;;;;;5053122;28;20122;-39
2022/03/28 05:27:46;;;;;;;0.73;0.40;;;21.60;43.70;;;;;;5059657;28;20132;-39
2022/03/28 05:30:13;;;;;;;0.50;0.40;;;21.60;43.90;;;;;;5062355;28;20035;-39
2022/03/28 05:32:39;;;;;;;0.40;0.37;;;21.60;44.00;;;;;;5046068;28;20312;-39
2022/03/28 05:35:06;;;;;;;0.50;0.35;;;21.60;44.00;;;;;;5060215;28;20059;-39
2022/03/28 05:37:32;;;;;;;0.50;0.47;;;21.60;44.00;;;;;;5058413;28;20029;-39
2022/03/28 05:39:58;;;;;;;0.60;0.47;;;21.60;43.90;;;;;;5053287;28;20036;-41
2022/03/28 05:42:25;;;;;;;0.40;0.30;;;21.60;43.80;;;;;;5059140;28;20402;-39
2022/03/28 05:44:51;;;;;;;0.80;0.40;;;21.50;43.80;;;;;;5055226;28;20017;-39
2022/03/28 05:47:17;;;;;;;2.00;0.30;;;21.60;44.00;;;;;;5055088;28;20056;-39
2022/03/28 05:49:43;;;;;;;1.05;0.65;;;21.60;44.10;;;;;;5057599;28;20025;-39
2022/03/28 05:52:09;;;;;;;0.50;0.40;;;21.60;44.20;;;;;;5055911;28;20390;-39
2022/03/28 05:54:36;;;;;;;0.85;0.45;;;21.50;43.90;;;;;;5045549;28;20025;-39
2022/03/28 05:57:02;;;;;;;0.43;0.40;;;21.50;43.90;;;;;;5045685;28;20033;-39
2022/03/28 05:59:28;;;;;;;0.50;0.40;;;21.50;43.80;;;;;;5063071;28;20041;-39
2022/03/28 06:01:54;;;;;;;1.13;0.40;;;21.50;43.90;;;;;;5054502;28;20029;-39
2022/03/28 06:04:20;;;;;;;0.52;0.40;;;21.50;44.00;;;;;;5044993;28;20132;-39
2022/03/28 06:06:47;;;;;;;0.82;0.47;;;21.50;44.10;;;;;;5045106;28;20033;-38
2022/03/28 06:09:13;;;;;;;0.80;0.50;;;21.50;44.20;;;;;;5059462;28;20025;-39
2022/03/28 06:11:39;;;;;;;0.63;0.45;;;21.50;44.10;;;;;;5064936;28;20035;-39
2022/03/28 06:14:05;;;;;;;0.70;0.40;;;21.50;43.90;;;;;;5064596;28;20057;-39
2022/03/28 06:16:32;;;;;;;0.60;0.40;;;21.50;43.80;;;;;;5062237;28;20043;-39
2022/03/28 06:18:58;;;;;;;0.73;0.50;;;21.50;43.90;;;;;;5053528;28;20021;-39
2022/03/28 06:21:24;;;;;;;0.60;0.45;;;21.50;44.10;;;;;;5056616;28;20025;-39
2022/03/28 06:23:50;;;;;;;0.63;0.40;;;21.50;44.10;;;;;;5054376;28;20044;-40
2022/03/28 06:26:17;;;;;;;1.95;0.40;;;21.50;44.20;;;;;;5053369;28;20071;-39
2022/03/28 06:28:44;;;;;;;;;;;21.50;44.10;;;;;;5063245;28;20501;-39
2022/03/28 06:31:10;;;;;;;0.70;0.40;;;21.50;44.00;;;;;;5054350;28;19915;-39
2022/03/28 06:33:36;;;;;;;1.40;0.57;;;21.50;43.90;;;;;;5056223;28;20025;-39
2022/03/28 06:36:03;;;;;;;0.50;0.40;;;21.40;43.90;;;;;;5057272;28;20056;-39
2022/03/28 06:38:29;;;;;;;0.97;0.47;;;21.50;44.10;;;;;;5056482;28;20994;-39
2022/03/28 06:40:55;;;;;;;0.40;0.32;;;21.50;44.20;;;;;;5056513;28;20108;-40
2022/03/28 06:43:21;;;;;;;0.70;0.50;;;21.50;44.30;;;;;;5055134;28;20040;-39
2022/03/28 06:45:50;;;;;;;1.05;0.75;;;21.40;44.10;;;;;;5055887;28;20033;-39
2022/03/28 06:48:17;;;;;;;0.70;0.55;;;21.50;44.10;;;;;;5064288;28;20405;-39
2022/03/28 06:50:43;;;;;;;0.88;0.45;;;21.50;44.10;;;;;;5064467;28;20021;-39
2022/03/28 06:53:09;;;;;;;0.60;0.50;;;21.40;44.10;;;;;;5064196;28;20021;-39
2022/03/28 06:55:36;;;;;;;0.65;0.50;;;21.40;44.20;;;;;;5064524;28;20033;-39
2022/03/28 06:58:02;;;;;;;1.02;0.50;;;21.40;44.30;;;;;;5055801;28;20028;-39
2022/03/28 07:00:28;;;;;;;0.57;0.40;;;21.40;44.20;;;;;;5064519;28;20032;-39
2022/03/28 07:02:54;;;;;;;1.13;0.40;;;21.40;44.10;;;;;;5064004;28;20017;-39
2022/03/28 07:05:20;;;;;;;0.70;0.40;;;21.40;44.00;;;;;;5064113;28;20025;-39
2022/03/28 07:07:48;;;;;;;0.70;0.30;;;21.40;44.00;;;;;;5063678;28;20070;-39
2022/03/28 07:10:16;;;;;;;0.70;0.40;;;21.40;44.10;;;;;;5063277;28;20394;-39
2022/03/28 07:12:42;;;;;;;0.85;0.40;;;21.40;44.30;;;;;;5063930;28;20504;-40
2022/03/28 07:15:10;;;;;;;0.35;0.30;;;21.40;44.30;;;;;;5063607;28;20052;-40
2022/03/28 07:17:47;;;;;;;0.80;0.38;;;21.40;44.30;;;;;;5052231;28;20041;-39
2022/03/28 07:20:13;;;;;;;0.38;0.30;;;21.40;44.20;;;;;;5060758;28;20044;-40
2022/03/28 07:22:39;;;;;;;0.60;0.47;;;21.40;44.10;;;;;;5083925;28;20044;-39
2022/03/28 07:25:06;;;;;;;0.45;0.40;;;21.40;44.10;;;;;;5064619;28;20021;-39
2022/03/28 07:27:39;;;;;;;0.50;0.40;;;21.40;44.20;;;;;;5063598;28;20118;-39
2022/03/28 07:30:06;;;;;;;0.70;0.30;;;21.40;44.30;;;;;;5063674;28;20143;-39
2022/03/28 07:32:32;;;;;;;0.50;0.40;;;21.40;44.30;;;;;;5054776;28;20017;-39
2022/03/28 07:34:58;;;;;;;1.00;0.30;;;21.40;44.40;;;;;;5059853;28;20083;-39
2022/03/28 07:37:26;;;;;;;0.98;0.40;;;21.40;44.30;;;;;;5063259;28;20021;-39
2022/03/28 07:39:52;;;;;;;0.70;0.40;;;21.30;44.20;;;;;;5062464;28;20052;-39
2022/03/28 07:42:18;;;;;;;0.47;0.30;;;21.40;44.20;;;;;;5044126;28;20026;-39
2022/03/28 07:44:44;;;;;;;0.55;0.40;;;21.40;44.30;;;;;;5050704;28;20033;-39
2022/03/28 07:47:11;;;;;;;0.40;0.30;;;21.40;44.40;;;;;;5051604;28;20026;-39
2022/03/28 07:49:38;;;;;;;0.25;0.25;;;21.40;44.50;;;;;;5043484;28;20060;-40
2022/03/28 07:52:07;;;;;;;1.45;0.43;;;21.40;44.50;;;;;;5052949;28;20029;-39
2022/03/28 07:54:33;;;;;;;0.30;0.30;;;21.30;44.30;;;;;;5063055;28;20037;-39
2022/03/28 07:57:00;;;;;;;1.10;0.50;;;21.30;44.20;;;;;;5063078;28;20036;-39
2022/03/28 07:59:26;;;;;;;1.02;0.40;;;21.30;44.20;;;;;;5063165;28;20140;-40
2022/03/28 08:01:52;;;;;;;1.08;0.32;;;21.30;44.30;;;;;;5061916;28;20033;-40
2022/03/28 08:04:18;;;;;;;0.70;0.35;;;21.30;44.30;;;;;;5062750;28;20025;-39
2022/03/28 08:06:44;;;;;;;0.30;0.30;;;21.30;44.50;;;;;;5063107;28;20044;-39
2022/03/28 08:09:11;;;;;;;0.40;0.30;;;21.30;44.50;;;;;;5054743;28;20051;-39
2022/03/28 08:11:37;;;;;;;0.47;0.30;;;21.30;44.40;;;;;;5062760;28;20037;-39
2022/03/28 08:14:04;;;;;;;0.70;0.40;;;21.30;44.20;;;;;;5059023;28;20049;-39
2022/03/28 08:16:30;;;;;;;;;;;21.30;44.20;;;;;;5050589;28;20060;-40
2022/03/28 08:18:56;;;;;;;0.52;0.40;;;21.30;44.30;;;;;;5055025;28;19947;-39
2022/03/28 08:21:23;;;;;;;0.45;0.30;;;21.30;44.50;;;;;;5051608;28;20035;-40
2022/03/28 08:23:49;;;;;;;0.50;0.30;;;21.30;44.60;;;;;;5051909;28;20032;-39
2022/03/28 08:26:15;;;;;;;0.22;0.22;;;21.30;44.50;;;;;;5053206;28;20075;-39
2022/03/28 08:28:42;;;;;;;0.35;0.20;;;21.30;44.40;;;;;;5054305;28;20570;-39
2022/03/28 08:31:09;;;;;;;0.30;0.30;;;21.30;44.40;;;;;;5055511;28;20588;-39
2022/03/28 08:33:35;;;;;;;0.55;0.40;;;21.30;44.40;;;;;;5047894;28;20041;-39
2022/03/28 08:36:01;;;;;;;0.50;0.30;;;21.30;44.50;;;;;;5053900;28;20040;-40
2022/03/28 08:38:27;;;;;;;0.47;0.30;;;21.30;44.60;;;;;;5054640;28;20081;-39
2022/03/28 08:40:54;;;;;;;0.40;0.30;;;21.30;44.70;;;;;;5053948;28;20057;-39
2022/03/28 08:43:21;;;;;;;0.52;0.30;;;21.30;44.60;;;;;;5052581;28;20033;-38
2022/03/28 08:45:49;;;;;;;0.68;0.40;;;21.30;44.50;;;;;;5052904;28;20033;-39
2022/03/28 08:48:15;;;;;;;0.60;0.30;;;21.30;44.40;;;;;;5057198;28;20014;-38
2022/03/28 08:50:43;;;;;;;0.95;0.30;;;21.20;44.40;;;;;;5055837;28;20037;-39
2022/03/28 08:53:10;;;;;;;0.55;0.30;;;21.30;44.50;;;;;;5053081;28;22557;-39
2022/03/28 08:55:38;;;;;;;0.43;0.30;;;21.30;44.60;;;;;;5054604;28;20044;-39
2022/03/28 08:58:04;;;;;;;0.75;0.47;;;21.30;44.60;;;;;;5051338;28;20025;-40
2022/03/28 09:00:30;;;;;;;0.30;0.20;;;21.20;44.60;;;;;;5053558;28;20055;-39
2022/03/28 09:02:57;;;;;;;0.80;0.40;;;21.30;44.50;;;;;;5055555;28;20083;-40
2022/03/28 09:05:31;;;;;;;0.30;0.30;;;21.20;44.30;;;;;;5052390;28;20039;-39
2022/03/28 09:07:58;;;;;;;0.43;0.22;;;21.20;44.50;;;;;;5056208;28;20269;-40
2022/03/28 09:10:25;;;;;;;0.40;0.30;;;21.20;44.60;;;;;;5051111;28;20041;-39
2022/03/28 09:13:03;;;;;;;0.50;0.40;;;21.20;44.70;;;;;;5050928;28;20032;-40
2022/03/28 09:15:57;;;;;;;1.02;0.30;;;21.30;44.70;;;;;;5052187;28;22392;-40
2022/03/28 09:18:36;;;;;;;0.30;0.20;;;21.20;44.60;;;;;;5052877;28;20068;-40
2022/03/28 09:21:04;;;;;;;0.40;0.32;;;21.20;44.50;;;;;;5059056;28;20032;-39
2022/03/28 09:23:33;;;;;;;0.25;0.25;;;21.20;44.50;;;;;;5060981;28;20032;-40
2022/03/28 09:26:05;;;;;;;0.38;0.20;;;21.20;44.60;;;;;;5057635;28;20092;-39
2022/03/28 09:28:46;;;;;;;0.52;0.30;;;21.20;44.80;;;;;;5059232;28;20029;-40
2022/03/28 09:31:32;;;;;;;0.30;0.25;;;21.20;44.80;;;;;;5056375;28;20544;-40
2022/03/28 09:34:14;;;;;;;0.70;0.30;;;21.20;44.70;;;;;;5054529;28;20040;-39
2022/03/28 09:36:53;;;;;;;0.63;0.30;;;21.20;44.50;;;;;;5055090;28;20098;-41
2022/03/28 09:39:30;;;;;;;0.32;0.30;;;21.20;44.60;;;;;;5053777;28;20032;-40
2022/03/28 09:42:06;;;;;;;0.47;0.20;;;21.20;44.80;;;;;;5054906;28;20084;-40
2022/03/28 09:44:40;;;;;;;0.40;0.30;;;21.20;44.80;;;;;;5052906;28;20036;-39
2022/03/28 09:47:13;;;;;;;0.30;0.20;;;21.20;44.90;;;;;;5058813;28;20116;-39
2022/03/28 09:49:41;;;;;;;0.35;0.35;;;21.20;44.80;;;;;;5055931;28;20060;-39
2022/03/28 09:52:12;;;;;;;0.68;0.30;;;21.20;44.70;;;;;;5057812;28;20033;-38
2022/03/28 09:54:55;;;;;;;0.45;0.20;;;21.20;44.70;;;;;;5060020;28;20036;-40
2022/03/28 09:57:28;;;;;;;0.20;0.20;;;21.20;44.80;;;;;;5061764;28;20103;-39
2022/03/28 10:00:07;;;;;;;0.38;0.25;;;21.20;44.90;;;;;;5056949;28;20025;-39
2022/03/28 10:02:33;;;;;;;0.22;0.22;;;21.20;45.00;;;;;;5058984;28;20033;-39
2022/03/28 10:05:00;;;;;;;1.30;0.60;;;21.20;44.90;;;;;;5056761;28;20029;-40
2022/03/28 10:07:26;;;;;;;0.43;0.25;;;21.20;44.70;;;;;;5053863;28;20033;-39
2022/03/28 10:09:53;;;;;;;0.57;0.30;;;21.20;44.80;;;;;;5055087;28;20029;-40
2022/03/28 10:12:20;;;;;;;0.30;0.20;;;21.20;44.90;;;;;;5056212;28;20175;-39
2022/03/28 10:14:50;;;;;;;;;;;21.20;45.00;;;;;;5065802;28;20064;-40
2022/03/28 10:17:17;;;;;;;0.20;0.17;;;21.20;45.10;;;;;;5069560;28;19908;-39
2022/03/28 10:19:43;;;;;;;0.17;0.15;;;21.20;44.90;;;;;;5085501;28;20728;-39
2022/03/28 10:22:15;;;;;;;0.32;0.25;;;21.20;44.90;;;;;;5082732;28;20049;-39
2022/03/28 10:24:41;;;;;;;0.38;0.32;;;21.20;44.80;;;;;;5084375;28;20032;-39
2022/03/28 10:27:08;;;;;;;0.20;0.20;;;21.20;44.90;;;;;;5066731;28;20820;-39
2022/03/28 10:29:39;;;;;;;0.45;0.28;;;21.20;45.00;;;;;;5065131;28;20044;-39
2022/03/28 10:32:21;;;;;;;0.40;0.20;;;21.20;45.00;;;;;;5060854;28;20051;-39
2022/03/28 10:34:56;;;;;;;0.30;0.20;;;21.20;45.00;;;;;;5064933;28;20040;-39
2022/03/28 10:37:39;;;;;;;0.45;0.30;;;21.20;45.00;;;;;;5064518;28;20031;-39
2022/03/28 10:40:27;;;;;;;0.20;0.20;;;21.20;44.90;;;;;;5063715;28;20445;-39
2022/03/28 10:43:02;;;;;;;2.80;0.32;;;21.20;45.00;;;;;;5077517;28;20041;-40
2022/03/28 10:45:33;;;;;;;0.20;0.20;;;21.20;45.10;;;;;;5056347;28;20033;-40
2022/03/28 10:47:59;;;;;;;0.38;0.20;;;21.20;45.10;;;;;;5055733;28;23904;-40
2022/03/28 10:50:28;;;;;;;0.30;0.30;;;21.20;45.10;;;;;;5057449;28;20033;-40
2022/03/28 10:53:04;;;;;;;0.30;0.30;;;21.20;44.90;;;;;;5054832;28;20040;-40
2022/03/28 10:55:43;;;;;;;0.50;0.22;;;21.20;44.80;;;;;;5057209;28;20045;-39
2022/03/28 10:58:17;;;;;;;0.50;0.30;;;21.20;44.90;;;;;;5055453;28;20030;-39
2022/03/28 11:01:09;;;;;;;0.30;0.30;;;21.10;45.00;;;;;;5051896;28;20056;-44
2022/03/28 11:03:41;;;;;;;0.73;0.38;;;21.20;45.10;;;;;;5055282;28;20029;-40
2022/03/28 11:06:07;;;;;;;0.40;0.30;;;21.20;45.20;;;;;;5049888;28;20020;-40
2022/03/28 11:08:34;;;;;;;0.20;0.20;;;21.20;45.00;;;;;;5054474;28;20039;-39
2022/03/28 11:11:19;;;;;;;0.30;0.20;;;21.10;44.90;;;;;;5055697;28;20040;-40
2022/03/28 11:14:04;;;;;;;0.52;0.30;;;21.10;45.00;;;;;;5054406;28;20442;-39
2022/03/28 11:16:40;;;;;;;0.30;0.30;;;21.10;45.00;;;;;;5063888;28;20036;-39
2022/03/28 11:19:27;;;;;;;0.52;0.20;;;21.10;45.10;;;;;;5044027;28;20064;-39
2022/03/28 11:22:28;;;;;;;1.08;0.40;;;21.20;45.30;;;;;;5043563;28;20022;-39
2022/03/28 11:24:56;;;;;;;0.40;0.30;;;21.10;45.00;;;;;;5077351;28;20016;-40
2022/03/28 11:27:24;;;;;;;0.43;0.28;;;21.10;45.10;;;;;;5083724;28;20052;-39
2022/03/28 11:29:50;;;;;;;0.20;0.20;;;21.10;45.00;;;;;;5084114;28;20043;-39
2022/03/28 11:32:20;;;;;;;0.20;0.20;;;21.10;45.10;;;;;;5067732;28;20025;-39
2022/03/28 11:34:53;;;;;;;0.28;0.20;;;21.10;45.20;;;;;;5064649;28;20846;-39
2022/03/28 11:37:21;;;;;;;0.50;0.20;;;21.20;45.20;;;;;;5064349;28;20576;-39
2022/03/28 11:39:56;;;;;;;0.20;0.20;;;21.10;45.20;;;;;;5065073;28;20025;-39
2022/03/28 11:42:27;;;;;;;0.30;0.30;;;21.10;45.10;;;;;;5063192;28;20036;-39
2022/03/28 11:44:54;;;;;;;0.70;0.35;;;21.10;45.00;;;;;;5064166;28;20119;-39
2022/03/28 11:47:21;;;;;;;0.20;0.20;;;21.10;45.10;;;;;;5062775;28;20032;-39
2022/03/28 11:49:54;;;;;;;0.47;0.32;;;21.10;45.20;;;;;;5063321;28;20021;-39
2022/03/28 11:52:21;;;;;;;1.38;0.40;;;21.10;45.20;;;;;;5062098;28;20107;-39
2022/03/28 11:54:47;;;;;;;0.30;0.20;;;21.10;45.30;;;;;;5062773;28;20033;-39
2022/03/28 12:00:20;;;;;;;0.30;0.20;;;21.10;45.00;;;;;;5063490;28;20089;-39
2022/03/28 12:02:51;;;;;;;0.50;0.30;;;21.10;45.00;;;;;;5046944;28;20024;-43
2022/03/28 12:05:30;;;;;;;0.40;0.30;;;21.10;45.10;;;;;;5049700;28;20028;-40
2022/03/28 12:07:56;;;;;;;0.98;0.28;;;21.10;45.30;;;;;;5042497;28;20032;-39
2022/03/28 12:10:24;;;;;;;0.30;0.20;;;21.10;45.30;;;;;;5045833;28;20031;-39
2022/03/28 12:12:50;;;;;;;0.52;0.40;;;21.10;45.20;;;;;;5048327;28;20139;-39
2022/03/28 12:15:27;;;;;;;0.85;0.30;;;21.10;45.10;;;;;;5060334;28;20071;-39
2022/03/28 12:17:54;;;;;;;0.30;0.20;;;21.10;45.10;;;;;;5070614;28;20040;-39
2022/03/28 12:20:23;;;;;;;0.38;0.25;;;21.10;45.20;;;;;;5049716;28;20048;-39
2022/03/28 12:22:50;;;;;;;0.45;0.30;;;21.10;45.20;;;;;;5048812;28;20037;-39
2022/03/28 12:25:35;;;;;;;0.30;0.25;;;21.10;45.30;;;;;;5063401;28;20029;-39
2022/03/28 12:28:09;;;;;;;0.30;0.20;;;21.10;45.10;;;;;;5053271;28;20070;-39
2022/03/28 12:30:39;;;;;;;0.30;0.20;;;21.10;45.00;;;;;;5042340;28;20469;-39
2022/03/28 12:33:12;;;;;;;0.20;0.20;;;21.10;45.10;;;;;;5060823;28;20660;-39
2022/03/28 12:35:43;;;;;;;0.68;0.30;;;21.10;45.20;;;;;;5070203;28;20044;-39
2022/03/28 12:38:16;;;;;;;1.23;0.35;;;21.10;45.30;;;;;;5060360;28;20033;-39
2022/03/28 12:40:46;;;;;;;1.05;0.30;;;21.10;45.30;;;;;;5061174;28;20031;-39
2022/03/28 12:43:13;;;;;;;0.38;0.30;;;21.10;45.20;;;;;;5060192;28;20044;-40
2022/03/28 12:45:39;;;;;;;1.20;0.30;;;21.10;45.30;;;;;;5050669;28;20337;-39
2022/03/28 12:48:07;;;;;;;0.33;0.20;;;21.10;45.20;;;;;;5054205;28;20060;-39
2022/03/28 12:50:34;;;;;;;0.15;0.15;;;21.10;45.20;;;;;;5056021;28;20028;-38
2022/03/28 12:53:12;;;;;;;0.20;0.20;;;21.10;45.30;;;;;;5051448;28;20041;-39
2022/03/28 12:55:39;;;;;;;0.38;0.25;;;21.10;45.40;;;;;;5054523;28;20105;-39
2022/03/28 12:58:05;;;;;;;0.55;0.30;;;21.10;45.30;;;;;;5054939;28;20485;-40
2022/03/28 13:00:33;;;;;;;0.40;0.30;;;21.10;45.20;;;;;;5057383;28;20064;-39